Flight Track Log - Related Links

Times and Time Zones

All times are in EDT time to prevent confusion due to time zone crossing. See the SWA558 flight status page for this flight to view local times or setup timezone preferences in your user account.

Time Position Orientation Groundspeed Altitude Reporting Facility
EDT Latitude Longitude Course Direction KTS MPH feet Rate Location/Type
Sun 03:58:38 PM 41.6533 -87.7000 180° South 253 291 9,500  Level Chicago Center
Sun 03:59:40 PM 41.6017 -87.7939 234° Southwest 264 304 13,000 2,855 Climbing Chicago Center
Sun 04:00:42 PM 41.5511 -87.8914 235° Southwest 313 360 15,400 2,516 Climbing Chicago Center
Sun 04:01:44 PM 41.4961 -87.9967 235° Southwest 348 400 18,200 2,516 Climbing Chicago Center
Sun 04:02:46 PM 41.4386 -88.1047 235° Southwest 365 420 20,600 2,323 Climbing Chicago Center
Sun 04:03:48 PM 41.3489 -88.2044 220° Southwest 383 441 23,000 2,468 Climbing Chicago Center
Sun 04:04:50 PM 41.2436 -88.2528 199° South 403 464 25,700 2,323 Climbing Chicago Center
Sun 04:05:52 PM 41.1422 -88.2992 199° South 392 451 27,800 1,113 Climbing Chicago Center
Sun 04:06:54 PM 41.0353 -88.3475 199° South 402 463 28,000 97 Climbing Chicago Center
Sun 04:07:56 PM 40.8989 -88.4083 199° South 426 490 28,000  Level Chicago Center
Sun 04:08:58 PM 40.7892 -88.4667 202° Southwest 428 493 28,000  Level Chicago Center
Sun 04:10:00 PM 40.6986 -88.5681 220° Southwest 429 494 28,000  Level Chicago Center
Sun 04:11:02 PM 40.6064 -88.6650 219° Southwest 426 490 28,000  Level Chicago Center
Sun 04:12:04 PM 40.5153 -88.7642 220° Southwest 426 490 28,000  Level Chicago Center
Sun 04:13:06 PM 40.4092 -88.8769 219° Southwest 428 493 28,000  Level Chicago Center
Sun 04:14:08 PM 40.3164 -88.9750 219° Southwest 426 490 28,000  Level Chicago Center
Sun 04:15:10 PM 40.2233 -89.0742 219° Southwest 429 494 28,000  Level Chicago Center
Sun 04:16:12 PM 40.1303 -89.1731 219° Southwest 431 496 28,000  Level Chicago Center
Sun 04:16:59 PM 40.0550 -89.2508 218° Southwest 426 490 28,000  Level Kansas City Center
Sun 04:18:00 PM 39.9633 -89.3475 219° Southwest 424 488 28,000 98 Level Kansas City Center
Sun 04:19:01 PM 39.8694 -89.4442 218° Southwest 426 490 28,200 1,296 Climbing Kansas City Center
Sun 04:20:05 PM 39.7758 -89.5439 219° Southwest 431 496 30,700 2,160 Climbing Kansas City Center
Sun 04:21:06 PM 39.6778 -89.6458 219° Southwest 423 487 32,700 1,536 Climbing Kansas City Center
Sun 04:22:10 PM 39.5867 -89.7394 218° Southwest 420 483 33,900 823 Climbing Kansas City Center
Sun 04:23:10 PM 39.4978 -89.8319 219° Southwest 414 476 34,400 1,659 Climbing Kansas City Center
Sun 04:24:13 PM 39.4147 -89.9200 219° Southwest 396 456 37,300 1,645 Climbing Kansas City Center
Sun 04:25:14 PM 39.3161 -90.0189 218° Southwest 378 435 37,800 341 Climbing Kansas City Center
Sun 04:26:16 PM 39.2300 -90.1067 218° Southwest 389 448 38,000 96 Climbing Kansas City Center
Sun 04:27:19 PM 39.1439 -90.1967 219° Southwest 397 457 38,000  Level Kansas City Center
Sun 04:28:19 PM 39.0581 -90.2839 218° Southwest 397 457 38,000  Level Kansas City Center
Sun 04:29:23 PM 38.9725 -90.3708 218° Southwest 396 456 38,000  Level Kansas City Center
Sun 04:30:25 PM 38.8825 -90.4614 218° Southwest 390 449 38,000  Level Kansas City Center
Sun 04:31:26 PM 38.7992 -90.5528 221° Southwest 391 450 38,000  Level Kansas City Center
Sun 04:32:27 PM 38.7017 -90.6633 222° Southwest 388 447 38,000  Level Kansas City Center
Sun 04:33:31 PM 38.6322 -90.7456 223° Southwest 388 447 38,000  Level Kansas City Center
Sun 04:34:31 PM 38.5514 -90.8378 222° Southwest 391 450 38,000  Level Kansas City Center
Sun 04:35:35 PM 38.4544 -90.9500 222° Southwest 392 451 38,000  Level Kansas City Center
Sun 04:36:35 PM 38.3719 -91.0442 222° Southwest 399 459 38,000  Level Kansas City Center
Sun 04:37:39 PM 38.2917 -91.1356 222° Southwest 391 450 38,000  Level Kansas City Center
Sun 04:38:40 PM 38.2089 -91.2278 221° Southwest 394 453 38,000  Level Kansas City Center
Sun 04:39:41 PM 38.1119 -91.3378 222° Southwest 396 456 38,000  Level Kansas City Center
Sun 04:40:43 PM 38.0275 -91.4339 222° Southwest 401 461 38,000  Level Kansas City Center
Sun 04:41:47 PM 37.9436 -91.5269 221° Southwest 400 460 38,000  Level Kansas City Center
Sun 04:42:47 PM 37.8611 -91.6233 223° Southwest 399 459 38,000  Level Kansas City Center
Sun 04:43:50 PM 37.7736 -91.7194 221° Southwest 404 465 38,000  Level Kansas City Center
Sun 04:44:51 PM 37.6872 -91.8158 221° Southwest 409 471 38,000  Level Kansas City Center
Sun 04:45:55 PM 37.5997 -91.9139 222° Southwest 413 475 38,000  Level Kansas City Center
Sun 04:46:55 PM 37.5131 -92.0097 221° Southwest 412 474 38,000  Level Kansas City Center
Sun 04:47:57 PM 37.4103 -92.1250 222° Southwest 410 472 38,000  Level Kansas City Center
Sun 04:49:01 PM 37.3222 -92.2211 221° Southwest 414 476 38,000  Level Kansas City Center
Sun 04:50:02 PM 37.2356 -92.3175 222° Southwest 414 476 38,000  Level Kansas City Center
Sun 04:51:05 PM 37.1481 -92.4114 221° Southwest 413 475 38,000 -774 Level Kansas City Center
Sun 04:52:06 PM 37.0606 -92.5072 221° Southwest 413 475 36,400 -1,756 Descending Kansas City Center
Sun 04:53:08 PM 36.9722 -92.6033 221° Southwest 415 478 34,400 -1,161 Descending Kansas City Center
Sun 04:54:10 PM 36.8850 -92.6986 221° Southwest 416 479 34,000 -195 Descending Kansas City Center
Sun 04:55:11 PM 36.7972 -92.7944 221° Southwest 416 479 34,000  Level Kansas City Center
Sun 04:56:21 PM 36.6892 -92.9083 220° Southwest 417 480 34,000  Level Memphis Center
Sun 04:57:21 PM 36.6017 -93.0036 221° Southwest 422 486 34,000  Level Memphis Center
Sun 04:58:21 PM 36.5122 -93.0964 220° Southwest 422 486 34,000  Level Memphis Center
Sun 04:59:21 PM 36.4225 -93.1914 220° Southwest 422 486 34,000  Level Memphis Center
Sun 05:00:21 PM 36.3306 -93.2886 220° Southwest 422 486 34,000  Level Memphis Center
Sun 05:01:21 PM 36.2408 -93.3856 221° Southwest 427 491 34,000  Level Memphis Center
Sun 05:02:21 PM 36.1489 -93.4800 220° Southwest 433 498 34,000  Level Memphis Center
Sun 05:03:21 PM 36.0586 -93.5792 222° Southwest 433 498 34,000  Level Memphis Center
Sun 05:04:21 PM 35.9686 -93.6706 219° Southwest 433 498 34,000  Level Memphis Center
Sun 05:05:21 PM 35.8678 -93.7742 220° Southwest 433 498 34,000  Level Memphis Center
Sun 05:06:20 PM 35.7800 -93.8653 220° Southwest 433 498 34,000  Level Memphis Center
Sun 05:07:20 PM 35.6939 -93.9561 221° Southwest 428 493 34,000  Level Memphis Center
Sun 05:08:21 PM 35.6036 -94.0467 219° Southwest 423 487 34,000  Level Memphis Center
Sun 05:09:21 PM 35.5153 -94.1397 221° Southwest 423 487 34,000  Level Memphis Center
Sun 05:10:21 PM 35.4269 -94.2325 221° Southwest 423 487 34,000  Level Memphis Center
Sun 05:11:21 PM 35.3328 -94.3122 215° Southwest 423 487 34,000  Level Memphis Center
Sun 05:12:21 PM 35.2322 -94.3914 213° Southwest 423 487 34,000  Level Memphis Center
Sun 05:13:21 PM 35.1294 -94.4675 211° Southwest 428 493 34,000  Level Memphis Center
Sun 05:14:27 PM 35.0192 -94.5564 213° Southwest 433 498 34,000  Level Fort Worth Center
Sun 05:15:27 PM 34.9167 -94.6333 212° Southwest 433 498 34,000  Level Fort Worth Center
Sun 05:16:27 PM 34.8222 -94.7072 213° Southwest 440 506 34,000  Level Fort Worth Center
Sun 05:17:27 PM 34.7197 -94.7836 211° Southwest 440 506 34,000  Level Fort Worth Center
Sun 05:18:27 PM 34.6169 -94.8625 212° Southwest 445 512 34,000  Level Fort Worth Center
Sun 05:19:27 PM 34.5183 -94.9386 212° Southwest 445 512 34,000  Level Fort Worth Center
Sun 05:20:27 PM 34.4153 -95.0119 210° Southwest 440 506 34,000  Level Fort Worth Center
Sun 05:21:27 PM 34.3125 -95.0878 211° Southwest 440 506 34,000  Level Fort Worth Center
Sun 05:22:27 PM 34.2094 -95.1633 211° Southwest 440 506 34,000  Level Fort Worth Center
Sun 05:23:27 PM 34.1086 -95.2411 213° Southwest 440 506 34,000  Level Fort Worth Center
Sun 05:24:27 PM 34.0056 -95.3189 212° Southwest 440 506 34,000  Level Fort Worth Center
Sun 05:25:27 PM 33.9025 -95.3914 210° Southwest 440 506 34,000  Level Fort Worth Center
Sun 05:26:27 PM 33.7972 -95.4664 211° Southwest 440 506 34,000  Level Fort Worth Center
Sun 05:27:27 PM 33.6961 -95.5436 212° Southwest 440 506 34,000  Level Fort Worth Center
Sun 05:28:27 PM 33.5969 -95.6156 211° Southwest 435 501 34,000  Level Fort Worth Center
Sun 05:29:27 PM 33.4917 -95.6897 210° Southwest 435 501 34,000  Level Fort Worth Center
Sun 05:30:27 PM 33.3861 -95.7689 212° Southwest 446 513 34,000  Level Fort Worth Center
Sun 05:31:27 PM 33.2828 -95.8431 211° Southwest 446 513 34,000  Level Fort Worth Center
Sun 05:32:27 PM 33.1669 -95.9269 211° Southwest 446 513 34,000  Level Fort Worth Center
Sun 05:33:27 PM 33.0614 -96.0031 211° Southwest 446 513 34,000  Level Fort Worth Center
Sun 05:34:27 PM 32.9578 -96.0789 212° Southwest 446 513 34,000  Level Fort Worth Center
Sun 05:35:27 PM 32.8500 -96.1547 211° Southwest 446 513 34,000  Level Fort Worth Center
Sun 05:36:27 PM 32.7464 -96.2303 212° Southwest 446 513 34,000  Level Fort Worth Center
Sun 05:37:27 PM 32.6406 -96.3033 210° Southwest 451 519 34,000  Level Fort Worth Center
Sun 05:38:27 PM 32.5347 -96.3783 211° Southwest 451 519 34,000  Level Fort Worth Center
Sun 05:39:27 PM 32.4414 -96.4461 212° Southwest 451 519 34,000  Level Fort Worth Center
Sun 05:40:27 PM 32.3311 -96.5111 206° Southwest 445 512 34,000 -350 Level Fort Worth Center
Sun 05:41:27 PM 32.2211 -96.5808 208° Southwest 440 506 33,300 -850 Descending Fort Worth Center
Sun 05:42:27 PM 32.1128 -96.6481 208° Southwest 440 506 32,300 -1,000 Descending Fort Worth Center
Sun 05:43:27 PM 32.0047 -96.7175 209° Southwest 440 506 31,300 -1,050 Descending Fort Worth Center
Sun 05:44:27 PM 31.8883 -96.7919 209° Southwest 434 499 30,200 -1,000 Descending Fort Worth Center
Sun 05:45:27 PM 31.7925 -96.8511 208° Southwest 439 505 29,300 -1,400 Descending Fort Worth Center
Sun 05:46:27 PM 31.6883 -96.9106 206° Southwest 429 494 27,400 -2,312 Descending Fort Worth Center
Sun 05:47:16 PM 31.5872 -96.9253 187° South 440 506 25,100 -2,378 Descending Houston Center
Sun 05:48:18 PM 31.4694 -96.9442 188° South 427 491 23,000 -1,694 Descending Houston Center
Sun 05:49:20 PM 31.3733 -96.9967 205° Southwest 385 443 21,600 -1,258 Descending Houston Center
Sun 05:50:22 PM 31.2814 -97.0928 222° Southwest 377 434 20,400 -1,065 Descending Houston Center
Sun 05:51:24 PM 31.1839 -97.1478 206° Southwest 384 442 19,400 -968 Descending Houston Center
Sun 05:52:26 PM 31.0875 -97.2039 207° Southwest 382 440 18,400 -1,065 Descending Houston Center
Sun 05:53:28 PM 30.9928 -97.2589 206° Southwest 379 436 17,200 -1,742 Descending Houston Center
Sun 05:54:30 PM 30.8917 -97.3169 206° Southwest 370 426 14,800 -2,081 Descending Houston Center
Sun 05:55:32 PM 30.8028 -97.3669 206° Southwest 356 410 12,900 -1,392 Descending Houston Center
Sun 05:56:35 PM 30.7150 -97.4000 198° South 331 381 11,900 -1,104 Descending Houston Center
Sun 05:57:37 PM 30.6350 -97.4317 199° South 307 353 10,600 -1,548 Descending Houston Center
Sun 05:58:39 PM 30.5864 -97.5014 231° Southwest 277 319 8,700 -1,742 Descending Houston Center
Sun 05:59:41 PM 30.5242 -97.5525 215° Southwest 270 311 7,000 -1,694 Descending Houston Center
Sun 06:00:43 PM 30.4642 -97.5989 214° Southwest 261 300 5,200 -1,790 Descending Houston Center
Sun 06:01:45 PM 30.3947 -97.6511 213° Southwest 254 292 3,300 -1,065 Descending Houston Center
Sun 06:02:47 PM 30.3322 -97.6719 196° South 235 270 3,000 -290 Descending Houston Center

Login

Don't have an account? Register now (free) for customized features, flight alerts, and more!